Time;durP1;ratioP1;P1;durP2;ratioP2;P2;SDS_P1;SDS_P2;PMS_P1;PMS_P2;Temp;Humidity;BMP_temperature;BMP_pressure;BME280_temperature;BME280_humidity;BME280_pressure;Samples;Min_cycle;Max_cycle;Signal;HPM_P1;HPM_P2
2024/01/26 00:00:00;;;;;;;13.30;7.23;;;;;;;7.76;100.00;101151.78;5028856;28;20649;-65
2024/01/26 00:02:25;;;;;;;23.83;8.93;;;;;;;7.87;100.00;101162.59;5036279;28;20279;-64
2024/01/26 00:04:50;;;;;;;19.97;8.27;;;;;;;7.63;100.00;101148.72;5016423;28;20210;-63
2024/01/26 00:07:16;;;;;;;21.43;9.13;;;;;;;7.78;100.00;101144.06;5031932;28;20182;-62
2024/01/26 00:09:41;;;;;;;24.47;9.77;;;;;;;7.73;100.00;101144.19;5031413;28;20178;-63
2024/01/26 00:12:06;;;;;;;19.60;8.37;;;;;;;7.69;100.00;101137.47;5053038;28;20278;-63
2024/01/26 00:14:32;;;;;;;24.03;8.97;;;;;;;7.65;100.00;101144.38;5030991;28;20182;-61
2024/01/26 00:16:57;;;;;;;17.73;8.13;;;;;;;7.48;100.00;101137.16;5031289;28;20541;-61
2024/01/26 00:19:22;;;;;;;26.53;9.57;;;;;;;7.45;100.00;101138.94;5031294;28;20180;-62
2024/01/26 00:21:48;;;;;;;19.37;7.93;;;;;;;7.36;100.00;101137.44;5047890;28;20616;-61
2024/01/26 00:24:13;;;;;;;18.83;8.37;;;;;;;7.35;100.00;101139.16;5035105;28;20200;-62
2024/01/26 00:26:38;;;;;;;25.03;9.90;;;;;;;7.34;100.00;101139.19;5031269;28;20212;-62
2024/01/26 00:29:03;;;;;;;25.30;8.70;;;;;;;7.35;100.00;101134.03;5030771;28;20719;-63
2024/01/26 00:31:29;;;;;;;23.47;8.70;;;;;;;7.40;100.00;101126.25;5003490;28;20232;-62
2024/01/26 00:33:54;;;;;;;21.30;9.23;;;;;;;7.37;100.00;101127.16;5034257;28;20652;-62
2024/01/26 00:36:19;;;;;;;18.90;8.97;;;;;;;7.36;100.00;101135.72;5031183;28;20186;-63
2024/01/26 00:38:45;;;;;;;22.50;9.50;;;;;;;7.45;100.00;101134.66;5030689;28;20189;-64
2024/01/26 00:41:10;;;;;;;24.67;10.37;;;;;;;7.52;100.00;101128.50;5039023;28;20219;-63
2024/01/26 00:43:36;;;;;;;20.73;8.83;;;;;;;7.35;100.00;101133.19;5040884;28;20556;-64
2024/01/26 00:46:02;;;;;;;18.40;9.03;;;;;;;7.47;100.00;101121.78;5061032;28;20236;-63
2024/01/26 00:48:27;;;;;;;20.97;9.47;;;;;;;7.50;100.00;101120.00;5031014;28;20189;-63
2024/01/26 00:50:54;;;;;;;19.30;9.27;;;;;;;7.53;100.00;101121.66;5037721;28;20636;-63
2024/01/26 00:53:20;;;;;;;29.13;9.87;;;;;;;7.56;100.00;101119.03;5048487;28;20190;-64
2024/01/26 00:55:46;;;;;;;17.63;10.33;;;;;;;7.43;100.00;101114.22;5029516;28;20186;-63
2024/01/26 00:58:11;;;;;;;22.07;9.83;;;;;;;7.52;100.00;101113.13;5030847;28;20269;-63
2024/01/26 01:00:37;;;;;;;23.60;9.47;;;;;;;7.41;100.00;101108.28;5029622;28;20224;-63
2024/01/26 01:03:04;;;;;;;19.37;9.17;;;;;;;7.44;100.00;101120.16;5040549;28;20181;-63
2024/01/26 01:05:29;;;;;;;16.27;9.30;;;;;;;7.58;100.00;101109.59;5028823;28;20261;-63
2024/01/26 01:07:54;;;;;;;21.43;9.80;;;;;;;7.57;100.00;101101.06;5031337;28;20661;-63
2024/01/26 01:10:21;;;;;;;25.83;9.70;;;;;;;7.46;100.00;101097.94;5025151;28;20245;-64
2024/01/26 01:12:47;;;;;;;18.70;9.80;;;;;;;7.48;100.00;101097.88;5056735;28;20265;-64
2024/01/26 01:15:12;;;;;;;18.60;10.20;;;;;;;7.53;100.00;101093.47;5029522;28;20238;-63
2024/01/26 01:17:43;;;;;;;17.90;9.40;;;;;;;7.48;100.00;101087.66;5031057;28;20587;-63
2024/01/26 01:20:10;;;;;;;14.83;9.10;;;;;;;7.57;100.00;101095.09;5021884;28;20664;-64
2024/01/26 01:22:37;;;;;;;22.57;10.53;;;;;;;7.64;100.00;101093.22;5044188;28;20243;-64
2024/01/26 01:25:03;;;;;;;21.77;10.57;;;;;;;7.57;100.00;101085.69;5029075;28;20268;-63
2024/01/26 01:27:28;;;;;;;16.03;8.97;;;;;;;7.56;100.00;101084.00;5029003;28;20269;-63
2024/01/26 01:29:54;;;;;;;19.43;9.43;;;;;;;7.65;100.00;101082.09;5030753;28;20272;-63
2024/01/26 01:32:19;;;;;;;15.67;9.10;;;;;;;7.64;100.00;101086.38;5052202;28;20654;-63
2024/01/26 01:34:44;;;;;;;15.33;9.50;;;;;;;7.47;100.00;101083.41;5049227;28;20182;-64
2024/01/26 01:37:09;;;;;;;15.33;9.23;;;;;;;7.63;100.00;101083.84;5033867;28;20256;-64
2024/01/26 01:39:35;;;;;;;19.77;9.23;;;;;;;7.69;100.00;101081.13;5039987;28;20434;-63
2024/01/26 01:42:00;;;;;;;20.03;10.17;;;;;;;7.65;100.00;101079.53;5056952;28;20233;-64
2024/01/26 01:44:26;;;;;;;14.77;8.97;;;;;;;7.63;100.00;101082.13;5032783;28;20273;-63
2024/01/26 01:46:51;;;;;;;13.63;9.03;;;;;;;7.70;100.00;101078.53;5038956;28;20222;-63
2024/01/26 01:49:17;;;;;;;14.03;8.20;;;;;;;7.65;100.00;101080.34;5040893;28;20201;-63
2024/01/26 01:51:46;;;;;;;15.27;8.80;;;;;;;7.63;100.00;101079.56;5054348;28;20686;-63
2024/01/26 01:54:12;;;;;;;17.87;9.53;;;;;;;7.58;100.00;101079.69;5034718;28;20216;-63
2024/01/26 01:56:39;;;;;;;17.77;9.70;;;;;;;7.60;100.00;101084.75;5032213;28;20182;-65
2024/01/26 01:59:05;;;;;;;19.33;9.80;;;;;;;7.67;100.00;101082.91;5033195;28;20513;-64
2024/01/26 02:01:31;;;;;;;13.60;7.97;;;;;;;7.56;100.00;101081.44;5036874;28;20282;-63
2024/01/26 02:04:00;;;;;;;13.30;9.33;;;;;;;7.66;100.00;101082.03;5030792;28;20618;-63
2024/01/26 02:06:26;;;;;;;15.70;8.97;;;;;;;7.39;100.00;101081.03;5030388;28;20186;-63
2024/01/26 02:08:51;;;;;;;17.97;9.13;;;;;;;7.38;100.00;101076.78;5033285;28;20184;-63
2024/01/26 02:11:16;;;;;;;17.20;8.63;;;;;;;7.29;100.00;101074.47;5042566;28;20702;-63
2024/01/26 02:13:41;;;;;;;16.00;9.60;;;;;;;7.20;100.00;101073.81;5045747;28;20182;-63
2024/01/26 02:16:06;;;;;;;16.47;10.17;;;;;;;7.24;100.00;101072.88;5033096;28;20182;-63
2024/01/26 02:21:54;;;;;;;13.23;8.40;;;;;;;7.38;100.00;101067.41;5051138;28;20236;-63
2024/01/26 02:24:20;;;;;;;18.50;9.67;;;;;;;7.32;100.00;101071.84;5035784;28;20210;-63
2024/01/26 02:26:45;;;;;;;14.87;9.30;;;;;;;7.43;100.00;101064.75;5033184;28;20263;-64
2024/01/26 02:29:11;;;;;;;15.87;9.33;;;;;;;7.52;100.00;101067.06;5064874;28;20555;-63
2024/01/26 02:31:36;;;;;;;15.80;9.73;;;;;;;7.50;100.00;101070.53;5035311;28;21189;-63
2024/01/26 02:34:02;;;;;;;16.23;9.47;;;;;;;7.37;100.00;101075.13;5034345;28;20192;-63
2024/01/26 02:36:28;;;;;;;17.13;9.30;;;;;;;7.33;100.00;101064.13;5031517;28;20268;-63
2024/01/26 02:38:54;;;;;;;11.93;9.20;;;;;;;7.55;100.00;101063.56;5031391;28;20185;-63
2024/01/26 02:41:19;;;;;;;14.03;9.27;;;;;;;7.56;100.00;101060.13;5043081;28;20669;-63
2024/01/26 02:43:44;;;;;;;12.23;8.63;;;;;;;7.58;100.00;101053.25;5036712;28;20174;-63
2024/01/26 02:46:10;;;;;;;14.93;9.10;;;;;;;7.61;100.00;101050.59;5031072;28;20230;-65
2024/01/26 02:48:35;;;;;;;13.30;8.77;;;;;;;7.60;100.00;101061.72;5032568;28;20175;-64
2024/01/26 02:51:01;;;;;;;12.93;9.33;;;;;;;7.63;100.00;101053.97;5023322;28;20323;-64
2024/01/26 02:53:26;;;;;;;12.17;8.43;;;;;;;7.56;100.00;101052.44;5048584;28;20661;-64
2024/01/26 02:55:51;;;;;;;15.60;10.40;;;;;;;7.66;100.00;101051.31;5033133;28;20186;-64
2024/01/26 02:58:17;;;;;;;12.53;8.70;;;;;;;7.54;100.00;101042.25;5032564;28;20650;-64
2024/01/26 03:00:42;;;;;;;12.43;8.83;;;;;;;7.62;100.00;101044.59;5033052;28;20232;-64
2024/01/26 03:03:07;;;;;;;13.07;9.50;;;;;;;7.70;100.00;101036.69;5049039;28;20200;-64
2024/01/26 03:05:33;;;;;;;14.13;9.37;;;;;;;7.67;100.00;101035.06;5022272;28;20219;-63
2024/01/26 03:07:58;;;;;;;13.70;9.03;;;;;;;7.57;100.00;101039.59;5032610;28;20181;-64
2024/01/26 03:10:23;;;;;;;11.10;8.80;;;;;;;7.66;100.00;101035.94;5028254;28;20283;-64
2024/01/26 03:12:49;;;;;;;13.80;9.00;;;;;;;7.70;100.00;101034.13;5057751;28;20186;-64
2024/01/26 03:15:14;;;;;;;14.37;9.37;;;;;;;7.68;100.00;101034.19;5032437;28;20178;-64
2024/01/26 03:17:39;;;;;;;12.90;9.77;;;;;;;7.70;100.00;101037.56;5064035;28;20660;-64
2024/01/26 03:20:07;;;;;;;14.60;9.23;;;;;;;7.69;100.00;101030.75;5022669;28;20260;-65
2024/01/26 03:22:33;;;;;;;13.00;8.60;;;;;;;7.48;100.00;101031.31;5061900;28;20197;-64
2024/01/26 03:24:58;;;;;;;12.33;8.60;;;;;;;7.53;100.00;101030.34;5032068;28;20249;-64
2024/01/26 03:27:24;;;;;;;13.00;8.90;;;;;;;7.41;100.00;101028.09;5032242;28;20312;-64
2024/01/26 03:29:49;;;;;;;15.27;10.07;;;;;;;7.37;100.00;101018.81;5032178;28;20313;-66
2024/01/26 03:32:15;;;;;;;17.50;9.43;;;;;;;7.33;100.00;101025.75;5053392;28;20363;-64
2024/01/26 03:34:40;;;;;;;16.13;9.77;;;;;;;7.25;100.00;101028.47;5031985;28;20182;-65
2024/01/26 03:37:05;;;;;;;16.13;9.93;;;;;;;7.26;100.00;101029.34;5031798;28;20275;-64
2024/01/26 03:39:30;;;;;;;15.37;9.53;;;;;;;7.19;100.00;101017.56;5032255;28;20186;-64
2024/01/26 03:41:56;;;;;;;17.20;9.80;;;;;;;7.20;100.00;101017.53;5051413;28;20683;-65
2024/01/26 03:44:21;;;;;;;17.13;11.27;;;;;;;7.17;100.00;101017.63;5033617;28;20194;-65
2024/01/26 03:46:47;;;;;;;13.17;9.63;;;;;;;7.18;100.00;101006.50;5029960;28;20218;-64
2024/01/26 03:49:12;;;;;;;16.43;9.53;;;;;;;7.25;100.00;101025.09;5038025;28;20238;-64
2024/01/26 03:51:37;;;;;;;10.87;8.77;;;;;;;7.32;100.00;101020.66;5048521;28;20671;-64
2024/01/26 03:54:03;;;;;;;9.97;8.93;;;;;;;7.42;100.00;101022.09;5038298;28;20192;-64
2024/01/26 03:56:28;;;;;;;10.73;8.40;;;;;;;7.49;100.00;101026.19;5030595;28;20558;-64
2024/01/26 03:58:53;;;;;;;10.30;8.13;;;;;;;7.64;100.00;101035.16;5031661;28;20182;-64
2024/01/26 04:01:19;;;;;;;9.07;7.67;;;;;;;7.51;100.00;101026.13;5033589;28;20769;-65
2024/01/26 04:03:45;;;;;;;11.53;8.53;;;;;;;7.63;100.00;101030.94;5035614;28;20190;-66
2024/01/26 04:06:10;;;;;;;10.97;8.50;;;;;;;7.74;100.00;101039.16;5031459;28;20186;-65
2024/01/26 04:08:35;;;;;;;8.20;7.23;;;;;;;7.80;100.00;101035.59;5031686;28;20194;-64
2024/01/26 04:11:01;;;;;;;10.43;7.53;;;;;;;7.85;100.00;101045.69;5036803;28;20216;-64
2024/01/26 04:13:26;;;;;;;11.27;7.67;;;;;;;7.96;100.00;101045.38;5038255;28;20192;-64
2024/01/26 04:15:51;;;;;;;9.43;7.30;;;;;;;7.99;100.00;101051.25;5026055;28;20526;-64
2024/01/26 04:18:16;;;;;;;8.37;7.20;;;;;;;8.08;100.00;101051.00;5023382;28;20178;-65
2024/01/26 04:20:42;;;;;;;7.93;7.07;;;;;;;8.20;100.00;101046.41;5030108;28;20278;-68
2024/01/26 04:23:07;;;;;;;8.23;6.00;;;;;;;8.19;100.00;101037.88;5028529;28;20272;-65
2024/01/26 04:25:32;;;;;;;8.63;6.33;;;;;;;8.24;100.00;101024.94;5031096;28;20286;-65
2024/01/26 04:27:57;;;;;;;8.50;5.83;;;;;;;8.37;100.00;101025.38;5030160;28;20217;-64
2024/01/26 04:30:23;;;;;;;5.60;5.07;;;;;;;8.50;100.00;101036.16;5006052;28;20230;-65
2024/01/26 04:32:48;;;;;;;6.20;5.03;;;;;;;8.49;100.00;101024.22;5050891;28;20170;-64
2024/01/26 04:35:13;;;;;;;5.33;4.83;;;;;;;8.46;100.00;101021.69;5017998;28;20237;-65
2024/01/26 04:37:39;;;;;;;5.53;4.93;;;;;;;8.52;100.00;101031.78;5031275;28;20177;-64
2024/01/26 04:40:06;;;;;;;5.37;4.87;;;;;;;8.58;100.00;101028.22;5021619;28;20186;-65
2024/01/26 04:42:31;;;;;;;6.17;4.63;;;;;;;8.53;100.00;101016.38;5061583;28;20274;-65
2024/01/26 04:44:56;;;;;;;5.27;4.53;;;;;;;8.54;100.00;101010.34;5062701;28;20280;-64
2024/01/26 04:47:22;;;;;;;5.50;4.43;;;;;;;8.57;100.00;100996.63;5031184;28;20234;-64
2024/01/26 04:49:47;;;;;;;4.43;4.03;;;;;;;8.65;100.00;100997.19;5041368;28;20201;-64
2024/01/26 04:52:12;;;;;;;4.77;4.17;;;;;;;8.63;100.00;100998.13;5052558;28;20609;-64
2024/01/26 04:54:37;;;;;;;4.83;4.20;;;;;;;8.74;100.00;100995.22;5030931;28;20185;-65
2024/01/26 04:57:03;;;;;;;4.27;3.80;;;;;;;8.72;100.00;100993.53;5042677;28;20185;-64
2024/01/26 04:59:30;;;;;;;5.13;4.10;;;;;;;8.72;100.00;101003.81;5029611;28;20182;-64
2024/01/26 05:01:56;;;;;;;3.93;3.60;;;;;;;8.68;100.00;100996.25;5037611;28;20414;-65
2024/01/26 05:04:21;;;;;;;4.00;3.27;;;;;;;8.63;100.00;101000.69;5019533;28;20217;-64
2024/01/26 05:06:46;;;;;;;3.13;2.87;;;;;;;8.66;100.00;100998.88;5031119;28;20648;-64
2024/01/26 05:09:11;;;;;;;3.53;2.90;;;;;;;8.64;100.00;100998.06;5033050;28;20186;-64
2024/01/26 05:11:37;;;;;;;3.20;2.90;;;;;;;8.74;100.00;100990.09;5038912;28;20722;-64
2024/01/26 05:14:02;;;;;;;5.60;2.87;;;;;;;8.65;100.00;100994.63;5041681;28;20189;-64
2024/01/26 05:16:27;;;;;;;3.27;2.87;;;;;;;8.59;100.00;100988.84;5034577;28;20181;-64
2024/01/26 05:18:53;;;;;;;4.40;2.90;;;;;;;8.75;100.00;100986.63;5034034;28;20187;-64
2024/01/26 05:21:18;;;;;;;2.73;2.53;;;;;;;8.80;100.00;100979.63;5044173;28;20235;-64
2024/01/26 05:23:43;;;;;;;3.00;2.70;;;;;;;8.85;100.00;100980.31;5046164;28;20178;-63
2024/01/26 05:26:08;;;;;;;3.60;2.83;;;;;;;8.84;100.00;100976.91;5034629;28;20171;-64
2024/01/26 05:28:35;;;;;;;3.37;2.50;;;;;;;8.74;100.00;100977.25;5034411;28;20188;-65
2024/01/26 05:31:01;;;;;;;2.93;2.63;;;;;;;8.81;100.00;100981.31;5058313;28;20229;-65
2024/01/26 05:33:26;;;;;;;2.70;2.50;;;;;;;8.68;100.00;100991.13;5040782;28;20237;-64
2024/01/26 05:35:52;;;;;;;3.43;2.43;;;;;;;8.63;100.00;100987.88;5034440;28;20182;-64
2024/01/26 05:38:17;;;;;;;2.40;2.20;;;;;;;8.75;100.00;100990.03;5066177;28;20271;-65
2024/01/26 05:40:42;;;;;;;2.20;2.03;;;;;;;8.77;100.00;100993.41;5022098;28;20667;-64
2024/01/26 05:43:08;;;;;;;2.67;2.40;;;;;;;8.83;100.00;100976.94;5054876;28;20188;-63
2024/01/26 05:45:34;;;;;;;2.47;2.20;;;;;;;8.81;100.00;100978.75;5033571;28;20229;-64
2024/01/26 05:47:59;;;;;;;2.60;2.30;;;;;;;8.71;100.00;100978.19;5033895;28;20192;-65
2024/01/26 05:50:24;;;;;;;3.43;2.67;;;;;;;8.75;100.00;100991.78;5038500;28;20241;-64
2024/01/26 05:52:50;;;;;;;2.93;2.60;;;;;;;8.70;100.00;101000.44;5059479;28;20582;-65
2024/01/26 05:55:15;;;;;;;2.90;2.60;;;;;;;8.68;100.00;100993.69;5033956;28;20182;-66
2024/01/26 05:57:41;;;;;;;4.37;2.57;;;;;;;8.55;100.00;100983.81;5020332;28;20174;-64
2024/01/26 06:00:07;;;;;;;2.73;2.53;;;;;;;8.60;100.00;100983.69;5039711;28;20190;-63
2024/01/26 06:02:32;;;;;;;2.63;2.43;;;;;;;8.54;100.00;100979.56;5064306;28;20308;-64
2024/01/26 06:04:57;;;;;;;2.90;2.70;;;;;;;8.49;100.00;100975.50;5014149;28;20226;-63
2024/01/26 06:07:23;;;;;;;3.10;2.80;;;;;;;8.63;100.00;100986.13;5049507;28;20276;-64
2024/01/26 06:09:48;;;;;;;2.80;2.50;;;;;;;8.50;100.00;100985.69;5033736;28;20206;-64
2024/01/26 06:12:13;;;;;;;3.23;2.93;;;;;;;8.39;100.00;100982.59;5039793;28;20227;-65
2024/01/26 06:14:38;;;;;;;3.40;3.10;;;;;;;8.45;100.00;100984.97;5033576;28;20637;-65
2024/01/26 06:17:04;;;;;;;3.33;3.03;;;;;;;8.36;100.00;100990.38;5033358;28;20182;-65
2024/01/26 06:19:29;;;;;;;4.67;3.17;;;;;;;8.36;100.00;100982.69;5032517;28;20184;-65
2024/01/26 06:21:55;;;;;;;3.00;2.77;;;;;;;8.29;100.00;100968.41;5052724;28;20224;-64
2024/01/26 06:24:20;;;;;;;3.57;3.07;;;;;;;8.17;100.00;100977.28;5035311;28;20284;-67
2024/01/26 06:26:45;;;;;;;3.87;3.50;;;;;;;8.14;100.00;100985.09;5032944;28;20186;-65
2024/01/26 06:29:10;;;;;;;3.80;3.40;;;;;;;8.14;100.00;100974.84;5033507;28;20180;-66
2024/01/26 06:31:36;;;;;;;4.43;3.70;;;;;;;8.14;100.00;100974.84;5047735;28;20232;-65
2024/01/26 06:34:02;;;;;;;4.53;3.87;;;;;;;8.19;100.00;100973.78;5035343;28;20217;-64
2024/01/26 06:36:27;;;;;;;5.47;4.10;;;;;;;8.14;100.00;100967.16;5033110;28;20674;-64
2024/01/26 06:38:52;;;;;;;4.13;3.70;;;;;;;8.15;100.00;100959.41;5032894;28;20515;-66
2024/01/26 06:41:18;;;;;;;4.10;3.70;;;;;;;7.91;100.00;100982.31;5043058;28;20252;-64
2024/01/26 06:43:50;;;;;;;3.90;3.60;;;;;;;7.89;100.00;100981.50;5044431;28;20178;-64
2024/01/26 06:46:18;;;;;;;4.50;4.10;;;;;;;8.03;100.00;100983.66;5032362;28;20230;-65
2024/01/26 06:48:43;;;;;;;4.77;3.90;;;;;;;8.06;100.00;100981.03;5067194;28;20209;-65
2024/01/26 06:51:09;;;;;;;4.93;4.27;;;;;;;8.07;100.00;100971.59;5036698;28;20244;-64
2024/01/26 06:53:35;;;;;;;12.53;4.93;;;;;;;8.15;100.00;100973.94;5046252;28;20185;-65
2024/01/26 06:56:00;;;;;;;6.10;4.60;;;;;;;8.14;100.00;100965.41;5033124;28;20182;-66
2024/01/26 06:58:25;;;;;;;5.77;4.23;;;;;;;8.05;100.00;100971.66;5032781;28;20201;-66
2024/01/26 07:00:52;;;;;;;4.87;4.37;;;;;;;8.15;100.00;100974.78;5034912;28;20266;-65
2024/01/26 07:03:18;;;;;;;6.07;4.20;;;;;;;8.23;100.00;100959.16;5044743;28;20175;-64
2024/01/26 07:05:43;;;;;;;4.13;3.60;;;;;;;8.29;100.00;100958.16;5025508;28;20669;-64
2024/01/26 07:08:09;;;;;;;4.73;4.13;;;;;;;8.21;100.00;100935.28;5031111;28;20174;-63
2024/01/26 07:10:34;;;;;;;4.43;4.00;;;;;;;8.29;100.00;100948.72;5028738;28;20225;-64
2024/01/26 07:13:00;;;;;;;5.23;4.73;;;;;;;8.31;100.00;100949.53;5042285;28;20186;-64
2024/01/26 07:15:25;;;;;;;4.67;4.13;;;;;;;8.26;100.00;100941.13;5032601;28;20193;-64
2024/01/26 07:17:50;;;;;;;5.20;4.70;;;;;;;8.40;100.00;100946.66;5032451;28;20261;-65
2024/01/26 07:20:16;;;;;;;5.23;4.50;;;;;;;8.47;100.00;100952.47;5026024;28;20527;-64
2024/01/26 07:22:42;;;;;;;4.53;4.13;;;;;;;8.45;100.00;100955.94;5044741;28;20175;-65
2024/01/26 07:25:09;;;;;;;5.30;4.80;;;;;;;8.39;100.00;100959.53;5032010;28;20206;-65
2024/01/26 07:27:35;;;;;;;4.87;4.43;;;;;;;8.50;100.00;100957.47;5031858;28;20244;-65
2024/01/26 07:30:05;;;;;;;5.43;4.37;;;;;;;8.61;100.00;100952.00;5031766;28;20190;-67
2024/01/26 07:32:30;;;;;;;5.20;4.27;;;;;;;8.65;100.00;100945.06;5020298;28;20249;-66
2024/01/26 07:34:56;;;;;;;4.53;4.07;;;;;;;8.48;100.00;100937.91;5031871;28;20225;-66
2024/01/26 07:37:21;;;;;;;6.60;4.50;;;;;;;8.59;100.00;100923.00;5032003;28;20193;-65
2024/01/26 07:39:46;;;;;;;4.50;4.10;;;;;;;8.65;100.00;100919.41;5031995;28;20194;-66
2024/01/26 07:42:12;;;;;;;5.70;4.27;;;;;;;8.68;100.00;100904.75;5053288;28;20216;-66
2024/01/26 07:44:37;;;;;;;5.97;4.30;;;;;;;8.66;100.00;100900.56;5031552;28;20200;-65
2024/01/26 07:47:02;;;;;;;6.00;3.77;;;;;;;8.82;100.00;100921.38;5031807;28;20226;-65
2024/01/26 07:49:28;;;;;;;4.30;3.90;;;;;;;8.95;100.00;100920.09;5036187;28;20263;-65
2024/01/26 07:51:53;;;;;;;4.27;3.87;;;;;;;9.12;100.00;100931.50;5050480;28;20300;-65
2024/01/26 07:54:18;;;;;;;5.70;3.60;;;;;;;9.23;100.00;100941.38;5034124;28;20601;-65
2024/01/26 07:56:43;;;;;;;3.80;3.40;;;;;;;9.29;100.00;100943.72;5031476;28;20247;-65
2024/01/26 07:59:09;;;;;;;4.03;3.73;;;;;;;9.39;100.00;100939.97;5031405;28;20188;-65
2024/01/26 08:01:34;;;;;;;4.40;4.00;;;;;;;9.27;100.00;100933.53;5035548;28;20290;-65
2024/01/26 08:03:59;;;;;;;4.03;3.40;;;;;;;9.29;100.00;100933.47;5036794;28;20181;-65
2024/01/26 08:06:24;;;;;;;6.23;3.83;;;;;;;9.23;100.00;100924.25;5031577;28;20624;-64
2024/01/26 08:08:50;;;;;;;3.07;2.87;;;;;;;9.11;100.00;100920.38;5030834;28;20185;-64
2024/01/26 08:11:18;;;;;;;2.97;2.73;;;;;;;9.16;100.00;100918.50;5040178;28;20755;-64
2024/01/26 08:13:44;;;;;;;2.83;2.63;;;;;;;9.21;100.00;100913.19;5034993;28;20272;-64
2024/01/26 08:16:15;;;;;;;3.87;3.00;;;;;;;9.09;100.00;100913.63;5031545;28;20343;-64
2024/01/26 08:18:40;;;;;;;3.10;2.60;;;;;;;9.20;100.00;100907.25;5030398;28;20193;-65
2024/01/26 08:21:07;;;;;;;3.00;2.70;;;;;;;9.30;100.00;100902.63;5038044;28;20220;-64
2024/01/26 08:23:32;;;;;;;2.97;2.77;;;;;;;9.26;100.00;100898.47;5045071;28;20231;-63
2024/01/26 08:25:57;;;;;;;3.40;3.10;;;;;;;9.33;100.00;100899.09;5030793;28;20254;-62
2024/01/26 08:28:22;;;;;;;4.13;3.30;;;;;;;9.29;100.00;100897.50;5063046;28;20193;-63
2024/01/26 08:30:48;;;;;;;3.07;2.77;;;;;;;9.25;100.00;100901.91;5003291;28;20689;-63
2024/01/26 08:33:13;;;;;;;3.90;3.60;;;;;;;9.23;100.00;100888.31;5048053;28;20181;-63
2024/01/26 08:35:38;;;;;;;5.03;4.17;;;;;;;9.23;100.00;100874.63;5031397;28;20549;-62
2024/01/26 08:38:04;;;;;;;5.53;4.33;;;;;;;9.32;100.00;100880.28;5030581;28;20192;-63
2024/01/26 08:40:29;;;;;;;5.30;4.80;;;;;;;9.34;100.00;100878.50;5028185;28;20295;-63
2024/01/26 08:42:54;;;;;;;5.10;4.43;;;;;;;9.35;100.00;100875.03;5056541;28;20185;-63
2024/01/26 08:45:19;;;;;;;4.10;3.70;;;;;;;9.41;100.00;100873.13;5035130;28;20213;-63
2024/01/26 08:47:45;;;;;;;4.43;4.03;;;;;;;9.42;100.00;100879.94;5035017;28;20178;-65
2024/01/26 08:50:11;;;;;;;4.60;3.57;;;;;;;9.45;100.00;100869.53;5015678;28;20233;-64
2024/01/26 08:52:36;;;;;;;4.13;3.73;;;;;;;9.47;100.00;100872.91;5048272;28;20380;-63
2024/01/26 08:55:03;;;;;;;5.60;4.17;;;;;;;9.49;100.00;100859.09;5033497;28;20181;-63
2024/01/26 08:57:28;;;;;;;4.17;3.77;;;;;;;9.58;100.00;100854.53;5033207;28;20198;-62
2024/01/26 08:59:53;;;;;;;5.03;4.47;;;;;;;9.54;100.00;100846.09;5034499;28;20264;-63
2024/01/26 09:02:18;;;;;;;6.13;4.40;;;;;;;9.69;100.00;100849.81;5055252;28;20220;-64
2024/01/26 09:04:44;;;;;;;6.23;4.40;;;;;;;9.57;100.00;100845.97;5020290;28;20194;-63
2024/01/26 09:07:09;;;;;;;5.33;3.83;;;;;;;9.60;100.00;100837.31;5033699;28;20189;-63
2024/01/26 09:09:34;;;;;;;5.47;4.10;;;;;;;9.65;100.00;100833.66;5033502;28;20608;-64
2024/01/26 09:12:00;;;;;;;4.87;4.10;;;;;;;9.74;100.00;100835.03;5054279;28;20256;-62
2024/01/26 09:14:25;;;;;;;7.83;4.30;;;;;;;9.77;100.00;100839.22;5034032;28;20193;-63
2024/01/26 09:16:51;;;;;;;5.60;4.50;;;;;;;9.76;100.00;100842.69;5034773;28;20311;-62
2024/01/26 09:19:16;;;;;;;4.60;4.03;;;;;;;9.64;100.00;100826.03;5021847;28;20629;-63
2024/01/26 09:21:42;;;;;;;6.17;4.47;;;;;;;9.81;100.00;100817.63;5050365;28;20235;-63
2024/01/26 09:24:08;;;;;;;4.23;3.80;;;;;;;9.96;100.00;100817.03;5039696;28;20669;-63
2024/01/26 09:26:33;;;;;;;5.60;3.90;;;;;;;10.08;100.00;100815.69;5034464;28;20220;-63
2024/01/26 09:28:58;;;;;;;4.57;3.87;;;;;;;10.11;100.00;100814.72;5065962;28;20590;-63
2024/01/26 09:31:23;;;;;;;3.97;3.67;;;;;;;10.02;100.00;100813.38;5045441;28;20327;-63
2024/01/26 09:33:49;;;;;;;4.27;3.53;;;;;;;9.97;100.00;100830.72;5044505;28;20576;-62
2024/01/26 09:36:14;;;;;;;4.37;3.87;;;;;;;9.87;100.00;100835.38;5034418;28;20178;-63
2024/01/26 09:38:40;;;;;;;4.00;3.60;;;;;;;9.77;100.00;100834.91;5033971;28;20194;-63
2024/01/26 09:41:05;;;;;;;4.93;3.90;;;;;;;9.79;100.00;100837.44;5040815;28;20270;-63
2024/01/26 09:43:31;;;;;;;4.37;3.80;;;;;;;9.73;100.00;100846.22;5049086;28;20281;-63
2024/01/26 09:45:56;;;;;;;5.90;4.30;;;;;;;9.66;100.00;100855.03;5065852;28;20230;-63
2024/01/26 09:48:22;;;;;;;5.33;3.73;;;;;;;9.67;100.00;100844.72;5034085;28;20220;-63
2024/01/26 09:50:53;;;;;;;5.50;4.10;;;;;;;9.74;100.00;100840.19;5043906;28;20234;-63
2024/01/26 09:53:18;;;;;;;5.40;3.80;;;;;;;9.59;100.00;100851.03;5040146;28;20193;-64
2024/01/26 09:55:47;;;;;;;5.23;3.67;;;;;;;9.64;100.00;100857.69;5033852;28;20178;-64
2024/01/26 09:58:14;;;;;;;7.20;3.73;;;;;;;9.50;100.00;100858.22;5033862;28;20186;-64
2024/01/26 10:00:41;;;;;;;3.73;2.90;;;;;;;9.38;100.00;100853.53;5030797;28;20236;-63
2024/01/26 10:03:06;;;;;;;3.43;2.50;;;;;;;9.46;100.00;100861.78;5038478;28;20689;-63
2024/01/26 10:05:31;;;;;;;3.60;2.90;;;;;;;9.45;100.00;100861.84;5024816;28;20298;-63
2024/01/26 10:07:57;;;;;;;2.57;2.37;;;;;;;9.57;100.00;100856.25;5033683;28;20218;-64
2024/01/26 10:10:23;;;;;;;2.63;2.43;;;;;;;9.60;100.00;100848.44;5029154;28;20578;-64
2024/01/26 10:12:50;;;;;;;3.60;2.47;;;;;;;9.55;100.00;100845.22;5058838;28;20208;-64
2024/01/26 10:15:15;;;;;;;5.20;2.27;;;;;;;9.50;100.00;100847.94;5032295;28;20186;-64
2024/01/26 10:17:43;;;;;;;3.43;2.40;;;;;;;9.42;100.00;100849.13;5032982;28;20579;-63
2024/01/26 10:20:14;;;;;;;4.10;2.00;;;;;;;9.49;100.00;100835.16;5023901;28;20178;-64
2024/01/26 10:22:40;;;;;;;2.60;2.40;;;;;;;9.49;100.00;100828.28;5046390;28;20174;-63
2024/01/26 10:25:06;;;;;;;2.10;1.90;;;;;;;9.49;100.00;100828.28;5032994;28;20657;-63
2024/01/26 10:27:33;;;;;;;2.50;2.30;;;;;;;9.57;100.00;100824.59;5032992;28;20235;-63
2024/01/26 10:29:58;;;;;;;5.50;2.40;;;;;;;9.67;100.00;100825.91;5032008;28;20186;-64
2024/01/26 10:32:28;;;;;;;2.80;2.60;;;;;;;9.79;100.00;100822.84;5054663;28;20673;-63
2024/01/26 10:35:01;;;;;;;6.77;2.27;;;;;;;9.77;100.00;100824.63;5031632;28;20265;-64
2024/01/26 10:37:35;;;;;;;3.13;2.27;;;;;;;9.90;100.00;100825.00;5028373;28;20685;-63
2024/01/26 10:40:04;;;;;;;3.20;2.47;;;;;;;10.02;100.00;100829.63;5026720;28;20178;-63
2024/01/26 10:42:32;;;;;;;2.60;2.40;;;;;;;10.12;100.00;100827.53;5038050;28;20229;-63
2024/01/26 10:45:02;;;;;;;3.30;2.60;;;;;;;10.22;100.00;100816.84;5030798;28;20256;-63
2024/01/26 10:47:27;;;;;;;6.13;2.43;;;;;;;10.30;100.00;100822.53;5031360;28;20239;-63
2024/01/26 10:50:04;;;;;;;2.40;2.20;;;;;;;10.20;100.00;100814.34;5041125;28;20189;-63
2024/01/26 10:52:32;;;;;;;2.93;2.73;;;;;;;10.25;100.00;100812.41;5021353;28;20217;-64
2024/01/26 10:54:58;;;;;;;3.00;2.70;;;;;;;10.14;100.00;100812.88;5064292;28;20248;-63
2024/01/26 10:57:23;;;;;;;2.70;2.50;;;;;;;10.14;100.00;100820.56;5032665;28;20198;-65
2024/01/26 10:59:49;;;;;;;2.37;2.13;;;;;;;10.06;100.00;100814.06;5032620;28;20258;-64
2024/01/26 11:02:19;;;;;;;3.33;2.77;;;;;;;10.11;100.00;100799.28;5054868;28;20609;-64
2024/01/26 11:04:44;;;;;;;4.27;2.60;;;;;;;10.14;100.00;100800.00;5050206;28;20276;-63
2024/01/26 11:07:10;;;;;;;3.20;2.60;;;;;;;10.26;100.00;100796.09;5032479;28;20188;-63
2024/01/26 11:09:38;;;;;;;3.23;2.90;;;;;;;10.38;100.00;100783.66;5031040;28;20186;-63
2024/01/26 11:12:19;;;;;;;2.60;2.40;;;;;;;10.33;100.00;100778.66;5039834;28;20263;-63
2024/01/26 11:14:46;;;;;;;2.90;2.50;;;;;;;10.37;100.00;100767.41;5032231;28;20185;-63
2024/01/26 11:17:12;;;;;;;2.17;1.97;;;;;;;10.56;100.00;100762.28;5030536;28;20181;-64